Hovedside
METAR-TAF:

METAR-TAF

Lufthavner :

Cape Town internasjonale lufthavn

Cape Town, Sør-Afrika

breddegrad: 33-59S, lengdegrad: 018-36E, høyde over havet: 42 m

Gjeldene værobservasjon

Denne rapporten ble laget for 1 time og 2 minutter siden, klokken 03:00 UTC
Vind 1 kt fra skiftende retning
Temperatur 4°C
Luftfuktighet 87%
Trykk 1031 hPa
Sikt 10 km eller mer
ingen skyer under 1500 m og ingen bygeskyer

METAR: FACT 200300Z VRB01KT CAVOK 04/02 Q1031 NOSIG

Tid: 06:02 (04:02 UTC)

Varsel

Denne rapporten ble laget for 6 timer og 2 minutter siden, klokken 22:00 UTC
Varsel gyldig fra 20. klokken 00 UTC til 21. klokken 06 UTC
Vind 8 kt fra Sør-sørøst
Sikt 10 km eller mer
Få skyer i en høyde av 3500 ft

TAF: FACT 192200Z 2000/2106 16008KT 9999 FEW035 TX17/2012Z TN05/2105Z

Værobservasjoner og værvarsel for over 4000 flyplasser (METAR- og TAF-rapporter).

Tilgjengelige stasjoner er representert av de røde og gule prikkene på kartet.

Hold musepekeren over prikken for å se navnet på stasjonen.

Klikk så for å se værobservasjoner og -varsler.

For å forandre kartet kan du klikke på den grønne knappen med svart kryss for å zoome inn, på den grønne knappen med strek for å zoome ut, eller på de grønne pilene for å se tilstøtende kart.


METAR-TAF: